Ocean Springs, MS (39565)

9:42 AM CST on February 13, 2016 (GMT -0600)
Country | | Change Station
CLOSE
Current Station
Personal Weather Station
Location: Vancleave, MS
Elevation: 50 ft
Nearby Weather Stations

Elev 50 ft 30.52 °N, 88.87 °W | Updated 6 seconds ago

Clear
Clear
51.0 °F
Feels Like 51.0 °F
N
0.0
Wind Variable Wind from ENE
Gusts 7.0 mph

Today
High -- | Low -- °F
--% Chance of Precip.
Yesterday
High -- | Low -- °F
Precip. -- in
Pressure 30.44 in
Visibility 10.0 miles
Clouds Clear
Dew Point 34 °F
Humidity 53%
Rainfall 0.00 in
Snow Depth Not available.
6:37 AM 5:41 PM
Waxing Crescent, 31% visible
METAR KPQL 131453Z AUTO 03011KT 10SM CLR 09/M03 A3044 RMK AO2 SLP308 T00941028 51023 TSNO
Pressure 30.44 in
Visibility 10.0 miles
Clouds Clear
Dew Point 34 °F
Humidity 53%
Rainfall 0.00 in
Snow Depth Not available.
6:37 AM 5:41 PM
Waxing Crescent, 31% visible
METAR KPQL 131453Z AUTO 03011KT 10SM CLR 09/M03 A3044 RMK AO2 SLP308 T00941028 51023 TSNO

10-Day Weather Forecast

Almanac

Astronomy

Feb. 13, 2016 Rise Set
Actual Time
Civil Twilight
Nautical Twilight
Astronomical Twilight
Moon
Length of Visible Light
Length of Day
Tomorrow will be .
, % of the Moon is Illuminated

Today's Extremes

State Highs State Lows

Community

WunderPhotos

Upload Photos

1,892,587 photos uploaded!

WunderBlog® & News

Nearby

Air Quality

  Air Quality AQ Index Pollutant
Not available.

Snow Depth

Station Depth Elevation

Earthquake Activity

City Distance Mag. Time & Date
Minimum magnitude displayed is 2.5.

Coastal Water Temperatures

Place Temperature

Stations

Nearby Weather Stations

Station Location Temp. Windchill Dew Point Humidity Wind Precip. Elev Updated Type
                   

Watches & Warnings

There are currently no watches in effect.